Time;durP1;ratioP1;P1;durP2;ratioP2;P2;SDS_P1;SDS_P2;PMS_P1;PMS_P2;Temp;Humidity;BMP_temperature;BMP_pressure;BME280_temperature;BME280_humidity;BME280_pressure;Samples;Min_cycle;Max_cycle;Signal;HPM_P1;HPM_P2
2021/11/26 00:00:22;;;;;;;46.78;28.90;;;1.90;99.90;;;;;;2673472;28;20247;-65
2021/11/26 00:01:41;;;;;;;43.40;30.00;;;1.90;99.90;;;;;;2674493;28;20205;-64
2021/11/26 00:02:58;;;;;;;47.25;29.13;;;1.90;99.90;;;;;;2671626;28;20454;-64
2021/11/26 00:04:19;;;;;;;45.33;30.00;;;1.80;99.90;;;;;;2677305;28;20640;-64
2021/11/26 00:05:38;;;;;;;45.75;28.95;;;1.80;99.90;;;;;;2683994;28;20504;-64
2021/11/26 00:06:56;;;;;;;44.97;29.77;;;1.80;99.90;;;;;;2678173;28;20202;-64
2021/11/26 00:08:15;;;;;;;46.97;29.73;;;1.80;99.90;;;;;;2678283;28;20870;-64
2021/11/26 00:09:33;;;;;;;42.80;27.70;;;1.80;99.90;;;;;;2679923;28;20663;-65
2021/11/26 00:10:52;;;;;;;47.80;30.90;;;1.80;99.90;;;;;;2682555;28;20201;-65
2021/11/26 00:12:09;;;;;;;44.80;30.65;;;1.80;99.90;;;;;;2688720;28;20205;-64
2021/11/26 00:13:32;;;;;;;42.83;27.87;;;1.80;99.90;;;;;;2676721;28;20300;-64
2021/11/26 00:15:02;;;;;;;45.22;28.48;;;1.80;99.90;;;;;;2677507;28;20452;-65
2021/11/26 00:16:27;;;;;;;46.13;31.02;;;1.80;99.90;;;;;;2675529;28;20216;-64
2021/11/26 00:17:50;;;;;;;47.80;29.13;;;1.80;99.90;;;;;;2676629;28;20211;-64
2021/11/26 00:19:09;;;;;;;43.38;29.08;;;1.80;99.90;;;;;;2675942;28;20229;-64
2021/11/26 00:20:27;;;;;;;42.85;27.70;;;1.80;99.90;;;;;;2678009;28;20209;-64
2021/11/26 00:21:46;;;;;;;42.10;29.33;;;1.70;99.90;;;;;;2686755;28;20477;-64
2021/11/26 00:23:07;;;;;;;43.85;31.65;;;1.70;99.90;;;;;;2673628;28;20449;-64
2021/11/26 00:24:25;;;;;;;47.30;29.63;;;1.70;99.90;;;;;;2681354;28;20216;-64
2021/11/26 00:25:44;;;;;;;43.17;29.80;;;1.80;99.90;;;;;;2678257;28;20210;-64
2021/11/26 00:27:03;;;;;;;41.90;29.60;;;1.80;99.90;;;;;;2669507;28;20197;-64
2021/11/26 00:28:22;;;;;;;44.05;30.30;;;1.80;99.90;;;;;;2683275;28;20209;-64
2021/11/26 00:29:40;;;;;;;46.42;30.30;;;1.80;99.90;;;;;;2687669;28;20247;-65
2021/11/26 00:30:59;;;;;;;51.93;32.27;;;1.80;99.90;;;;;;2682180;28;20233;-64
2021/11/26 00:32:17;;;;;;;44.28;31.02;;;1.80;99.90;;;;;;2679932;28;20864;-64
2021/11/26 00:33:36;;;;;;;45.42;29.10;;;1.80;99.90;;;;;;2680479;28;20203;-64
2021/11/26 00:34:55;;;;;;;44.67;30.27;;;1.80;99.90;;;;;;2682636;28;20202;-64
2021/11/26 00:36:13;;;;;;;48.40;30.50;;;1.70;99.90;;;;;;2683238;28;20206;-65
2021/11/26 00:37:31;;;;;;;49.88;30.75;;;1.80;99.90;;;;;;2680282;28;20202;-65
2021/11/26 00:38:50;;;;;;;45.53;29.90;;;1.80;99.90;;;;;;2679555;28;20214;-65
2021/11/26 00:40:09;;;;;;;48.72;30.08;;;1.80;99.90;;;;;;2679114;28;20514;-65
2021/11/26 00:41:27;;;;;;;48.03;31.50;;;1.80;99.90;;;;;;2678682;28;20723;-65
2021/11/26 00:42:46;;;;;;;44.75;29.77;;;1.80;99.90;;;;;;2684946;28;20210;-65
2021/11/26 00:44:04;;;;;;;44.25;30.42;;;1.80;99.90;;;;;;2679553;28;20648;-65
2021/11/26 00:45:24;;;;;;;50.08;31.92;;;1.80;99.90;;;;;;2675381;28;20384;-64
2021/11/26 00:46:43;;;;;;;49.60;32.80;;;1.70;99.90;;;;;;2677184;28;20202;-65
2021/11/26 00:48:02;;;;;;;48.88;31.23;;;1.70;99.90;;;;;;2681795;28;20235;-65
2021/11/26 00:49:20;;;;;;;44.38;29.92;;;1.70;99.90;;;;;;2680377;28;20268;-64
2021/11/26 00:50:39;;;;;;;51.05;31.88;;;1.70;99.90;;;;;;2679564;28;20201;-64
2021/11/26 00:51:57;;;;;;;45.10;31.30;;;1.70;99.90;;;;;;2681066;28;20216;-64
2021/11/26 00:53:17;;;;;;;49.90;30.92;;;1.70;99.90;;;;;;2679978;28;20746;-64
2021/11/26 00:54:35;;;;;;;42.85;28.45;;;1.70;99.90;;;;;;2677902;28;20202;-65
2021/11/26 00:55:53;;;;;;;46.40;31.60;;;1.70;99.90;;;;;;2681883;28;20259;-65
2021/11/26 00:57:11;;;;;;;46.78;32.28;;;1.70;99.90;;;;;;2682674;28;20505;-65
2021/11/26 00:58:30;;;;;;;49.72;32.20;;;1.80;99.90;;;;;;2677727;28;20205;-65
2021/11/26 00:59:49;;;;;;;46.15;29.65;;;1.80;99.90;;;;;;2676255;28;20226;-65
2021/11/26 01:01:08;;;;;;;42.88;29.55;;;1.80;99.90;;;;;;2679867;28;20259;-65
2021/11/26 01:02:26;;;;;;;47.17;31.27;;;1.80;99.90;;;;;;2676184;28;20756;-64
2021/11/26 01:03:45;;;;;;;48.10;31.30;;;1.80;99.90;;;;;;2680606;28;20658;-65
2021/11/26 01:05:04;;;;;;;47.65;30.75;;;1.80;99.90;;;;;;2677373;28;20228;-64
2021/11/26 01:06:23;;;;;;;47.92;31.05;;;1.70;99.90;;;;;;2681666;28;20209;-65
2021/11/26 01:07:41;;;;;;;46.42;30.15;;;1.80;99.90;;;;;;2676873;28;20662;-65
2021/11/26 01:09:00;;;;;;;49.08;31.42;;;1.80;99.90;;;;;;2678914;28;20288;-65
2021/11/26 01:10:22;;;;;;;48.58;30.45;;;1.80;99.90;;;;;;2679616;28;20636;-65
2021/11/26 01:11:40;;;;;;;49.90;31.55;;;1.80;99.90;;;;;;2680239;28;20620;-65
2021/11/26 01:12:59;;;;;;;46.55;31.70;;;1.80;99.90;;;;;;2675899;28;20299;-65
2021/11/26 01:14:16;;;;;;;47.00;32.03;;;1.90;99.90;;;;;;2677953;28;20195;-65
2021/11/26 01:15:36;;;;;;;49.55;30.67;;;1.90;99.90;;;;;;2679118;28;20214;-65
2021/11/26 01:16:55;;;;;;;51.15;33.08;;;1.80;99.90;;;;;;2679470;28;20206;-65
2021/11/26 01:18:15;;;;;;;45.95;31.92;;;1.80;99.90;;;;;;2676455;28;20209;-64
2021/11/26 01:19:33;;;;;;;45.40;30.20;;;1.80;99.90;;;;;;2677178;28;20233;-65
2021/11/26 01:20:52;;;;;;;44.03;30.57;;;1.80;99.90;;;;;;2678084;28;20199;-65
2021/11/26 01:22:10;;;;;;;45.10;31.08;;;1.80;99.90;;;;;;2671409;28;20213;-65
2021/11/26 01:23:29;;;;;;;48.60;31.52;;;1.80;99.90;;;;;;2674096;28;20669;-65
2021/11/26 01:24:47;;;;;;;46.10;30.30;;;1.70;99.90;;;;;;2679420;28;20206;-65
2021/11/26 01:26:06;;;;;;;48.50;31.47;;;1.70;99.90;;;;;;2679818;28;20255;-65
2021/11/26 01:27:25;;;;;;;50.47;32.03;;;1.80;99.90;;;;;;2674785;28;20456;-65
2021/11/26 01:28:46;;;;;;;54.65;33.17;;;1.80;99.90;;;;;;2673395;28;20207;-65
2021/11/26 01:30:14;;;;;;;50.28;30.90;;;1.90;99.90;;;;;;2678575;28;20301;-65
2021/11/26 01:31:35;;;;;;;49.67;30.35;;;1.90;99.90;;;;;;2671666;28;20207;-64
2021/11/26 01:32:55;;;;;;;56.30;32.72;;;1.90;99.90;;;;;;2676181;28;20693;-65
2021/11/26 01:34:13;;;;;;;49.42;33.05;;;1.80;99.90;;;;;;2674984;28;20214;-65
2021/11/26 01:35:32;;;;;;;45.77;32.40;;;1.80;99.90;;;;;;2677475;28;20214;-65
2021/11/26 01:36:50;;;;;;;47.88;31.85;;;1.90;99.90;;;;;;2676304;28;20449;-65
2021/11/26 01:38:10;;;;;;;53.10;34.67;;;1.80;99.90;;;;;;2673081;28;20218;-65
2021/11/26 01:39:28;;;;;;;48.90;32.47;;;1.90;99.90;;;;;;2679495;28;21041;-65
2021/11/26 01:40:47;;;;;;;50.65;31.42;;;1.90;99.90;;;;;;2677364;28;20201;-65
2021/11/26 01:42:06;;;;;;;57.25;35.70;;;2.00;99.90;;;;;;2681314;28;20895;-65
2021/11/26 01:43:24;;;;;;;53.03;34.30;;;2.00;99.90;;;;;;2674874;28;20559;-65
2021/11/26 01:44:42;;;;;;;53.53;33.50;;;1.90;99.90;;;;;;2679540;28;20283;-65
2021/11/26 01:46:08;;;;;;;49.92;34.03;;;1.90;99.90;;;;;;2680978;28;20213;-65
2021/11/26 01:47:27;;;;;;;51.75;34.42;;;1.80;99.90;;;;;;2672290;28;20202;-65
2021/11/26 01:48:45;;;;;;;43.25;30.85;;;1.80;99.90;;;;;;2679010;28;20834;-64
2021/11/26 01:50:06;;;;;;;50.97;33.03;;;1.80;99.90;;;;;;2678528;28;20730;-65
2021/11/26 01:51:25;;;;;;;47.90;32.15;;;1.80;99.90;;;;;;2678873;28;20217;-65
2021/11/26 01:52:43;;;;;;;51.38;31.48;;;1.80;99.90;;;;;;2676171;28;20735;-65
2021/11/26 01:54:02;;;;;;;47.90;33.60;;;1.80;99.90;;;;;;2685021;28;20205;-64
2021/11/26 01:55:20;;;;;;;56.10;34.13;;;1.80;99.90;;;;;;2679167;28;20866;-64
2021/11/26 01:56:40;;;;;;;56.13;33.03;;;1.90;99.90;;;;;;2683158;28;20206;-64
2021/11/26 01:57:57;;;;;;;53.50;34.50;;;1.90;99.90;;;;;;2682295;28;20224;-65
2021/11/26 01:59:16;;;;;;;48.83;32.40;;;2.00;99.90;;;;;;2680733;28;20200;-64
2021/11/26 02:00:34;;;;;;;48.92;32.17;;;2.00;99.90;;;;;;2675905;28;20478;-65
2021/11/26 02:01:53;;;;;;;49.83;33.45;;;2.00;99.90;;;;;;2679423;28;20204;-64
2021/11/26 02:03:12;;;;;;;49.22;32.63;;;1.90;99.90;;;;;;2679048;28;20259;-65
2021/11/26 02:04:31;;;;;;;49.53;32.60;;;1.90;99.90;;;;;;2680154;28;20265;-65
2021/11/26 02:05:50;;;;;;;52.90;32.58;;;1.90;99.90;;;;;;2680500;28;20546;-64
2021/11/26 02:07:07;;;;;;;49.70;31.60;;;1.90;99.90;;;;;;2674925;28;20262;-64
2021/11/26 02:08:26;;;;;;;47.63;31.50;;;1.90;99.90;;;;;;2673360;28;20745;-64
2021/11/26 02:09:45;;;;;;;46.42;31.13;;;1.90;99.90;;;;;;2681978;28;20262;-65
2021/11/26 02:11:04;;;;;;;53.67;31.70;;;1.90;99.90;;;;;;2682924;28;20255;-64
2021/11/26 02:12:23;;;;;;;45.85;30.52;;;1.90;99.90;;;;;;2685081;28;20201;-64
2021/11/26 02:13:42;;;;;;;54.00;34.97;;;1.90;99.90;;;;;;2675397;28;20202;-64
2021/11/26 02:15:00;;;;;;;45.58;32.25;;;1.90;99.90;;;;;;2670648;28;20206;-65
2021/11/26 02:16:18;;;;;;;51.27;33.17;;;1.90;99.90;;;;;;2671522;28;20486;-65
2021/11/26 02:17:37;;;;;;;50.75;32.40;;;1.90;99.90;;;;;;2685802;28;20477;-65
2021/11/26 02:18:56;;;;;;;49.42;34.00;;;1.90;99.90;;;;;;2678841;28;20197;-64
2021/11/26 02:20:16;;;;;;;50.83;32.70;;;1.80;99.90;;;;;;2677800;28;20230;-65
2021/11/26 02:21:34;;;;;;;46.90;31.85;;;1.80;99.90;;;;;;2679814;28;20547;-65
2021/11/26 02:22:54;;;;;;;48.03;32.88;;;1.80;99.90;;;;;;2678806;28;20390;-64
2021/11/26 02:24:13;;;;;;;46.00;32.05;;;1.90;99.90;;;;;;2685103;28;20210;-64
2021/11/26 02:25:32;;;;;;;52.10;34.72;;;1.90;99.90;;;;;;2678341;28;20206;-64
2021/11/26 02:26:52;;;;;;;49.13;32.60;;;1.90;99.90;;;;;;2677303;28;20243;-65
2021/11/26 02:28:12;;;;;;;49.90;32.05;;;1.80;99.90;;;;;;2682429;28;20213;-65
2021/11/26 02:29:31;;;;;;;46.35;31.67;;;1.80;99.90;;;;;;2677216;28;20654;-64
2021/11/26 02:30:48;;;;;;;48.00;31.55;;;1.80;99.90;;;;;;2676431;28;20251;-65
2021/11/26 02:32:07;;;;;;;45.90;30.40;;;1.80;99.90;;;;;;2678078;28;20210;-65
2021/11/26 02:33:26;;;;;;;48.67;32.65;;;1.80;99.90;;;;;;2678147;28;20877;-64
2021/11/26 02:34:44;;;;;;;44.25;30.40;;;1.80;99.90;;;;;;2677598;28;20293;-64
2021/11/26 02:36:03;;;;;;;48.33;33.37;;;1.80;99.90;;;;;;2682718;28;20202;-64
2021/11/26 02:37:21;;;;;;;50.92;32.95;;;1.80;99.90;;;;;;2672528;28;20465;-64
2021/11/26 02:38:40;;;;;;;51.83;33.40;;;1.80;99.90;;;;;;2673862;28;20233;-64
2021/11/26 02:39:57;;;;;;;49.88;32.35;;;1.80;99.90;;;;;;2676770;28;20495;-64
2021/11/26 02:41:16;;;;;;;46.83;30.10;;;1.80;99.90;;;;;;2674553;28;20201;-64
2021/11/26 02:42:36;;;;;;;51.00;34.15;;;1.80;99.90;;;;;;2673710;28;20521;-64
2021/11/26 02:43:55;;;;;;;47.53;31.13;;;1.80;99.90;;;;;;2678984;28;20554;-65
2021/11/26 02:45:14;;;;;;;46.63;31.30;;;1.80;99.90;;;;;;2679903;28;20213;-65
2021/11/26 02:46:33;;;;;;;51.38;32.40;;;1.80;99.90;;;;;;2683015;28;20207;-64
2021/11/26 02:47:53;;;;;;;50.53;32.20;;;1.80;99.90;;;;;;2689443;28;20246;-64
2021/11/26 02:49:12;;;;;;;46.05;30.08;;;1.90;99.90;;;;;;2681737;28;20233;-64
2021/11/26 02:50:31;;;;;;;49.90;32.00;;;1.90;99.90;;;;;;2678006;28;20217;-65
2021/11/26 02:51:50;;;;;;;46.75;30.73;;;1.90;99.90;;;;;;2674546;28;20824;-64
2021/11/26 02:53:08;;;;;;;51.22;31.30;;;1.90;99.90;;;;;;2675391;28;21023;-64
2021/11/26 02:54:27;;;;;;;52.90;31.88;;;1.80;99.90;;;;;;2686042;28;20216;-64
2021/11/26 02:55:47;;;;;;;46.97;32.65;;;1.70;99.90;;;;;;2676023;28;20301;-64
2021/11/26 02:57:06;;;;;;;45.47;30.98;;;1.70;99.90;;;;;;2679016;28;20458;-65
2021/11/26 02:58:25;;;;;;;43.25;29.60;;;1.80;99.90;;;;;;2672255;28;20682;-65
2021/11/26 02:59:43;;;;;;;48.47;32.85;;;1.70;99.90;;;;;;2675341;28;20205;-64
2021/11/26 03:01:03;;;;;;;46.15;32.50;;;1.70;99.90;;;;;;2682675;28;20290;-64
2021/11/26 03:02:21;;;;;;;50.05;34.10;;;1.70;99.90;;;;;;2677153;28;20213;-64
2021/11/26 03:03:41;;;;;;;48.42;32.58;;;1.70;99.90;;;;;;2677533;28;20221;-64
2021/11/26 03:04:59;;;;;;;47.58;31.83;;;1.60;99.90;;;;;;2679357;28;20285;-65
2021/11/26 03:06:18;;;;;;;48.58;32.78;;;1.60;99.90;;;;;;2674861;28;20671;-64
2021/11/26 03:07:36;;;;;;;51.60;31.23;;;1.60;99.90;;;;;;2679732;28;20199;-64
2021/11/26 03:08:54;;;;;;;53.05;32.13;;;1.60;99.90;;;;;;2683660;28;20270;-64
2021/11/26 03:10:16;;;;;;;51.15;32.78;;;1.60;99.90;;;;;;2678539;28;20204;-64
2021/11/26 03:11:35;;;;;;;50.80;33.03;;;1.70;99.90;;;;;;2671867;28;20685;-64
2021/11/26 03:12:56;;;;;;;48.83;33.97;;;1.80;99.90;;;;;;2679716;28;20210;-64
2021/11/26 03:14:15;;;;;;;59.20;34.88;;;1.80;99.90;;;;;;2684213;28;20209;-64
2021/11/26 03:15:36;;;;;;;47.40;32.13;;;1.70;99.90;;;;;;2678966;28;20266;-64
2021/11/26 03:16:54;;;;;;;46.28;31.85;;;1.70;99.90;;;;;;2677010;28;20202;-64
2021/11/26 03:18:16;;;;;;;52.00;33.13;;;1.70;99.90;;;;;;2678865;28;20251;-64
2021/11/26 03:19:35;;;;;;;49.13;32.60;;;1.80;99.90;;;;;;2674008;28;20565;-64
2021/11/26 03:20:54;;;;;;;46.70;32.53;;;1.80;99.90;;;;;;2678570;28;20500;-64
2021/11/26 03:22:12;;;;;;;46.58;31.30;;;1.70;99.90;;;;;;2684842;28;20208;-65
2021/11/26 03:23:31;;;;;;;47.20;32.75;;;1.70;99.90;;;;;;2679536;28;20205;-65
2021/11/26 03:24:48;;;;;;;49.75;31.20;;;1.70;99.90;;;;;;2683050;28;20211;-65
2021/11/26 03:26:07;;;;;;;46.78;32.10;;;1.70;99.90;;;;;;2678990;28;20635;-65
2021/11/26 03:27:25;;;;;;;49.83;33.40;;;1.60;99.90;;;;;;2678493;28;20678;-64
2021/11/26 03:28:43;;;;;;;47.57;32.30;;;1.60;99.90;;;;;;2683582;28;20253;-64
2021/11/26 03:30:05;;;;;;;46.17;30.45;;;1.60;99.90;;;;;;2679136;28;20941;-65
2021/11/26 03:31:23;;;;;;;48.47;29.63;;;1.70;99.90;;;;;;2677785;28;20208;-65
2021/11/26 03:32:42;;;;;;;46.78;30.63;;;1.70;99.90;;;;;;2678625;28;20800;-64
2021/11/26 03:34:01;;;;;;;47.03;29.40;;;1.70;99.90;;;;;;2680672;28;20313;-64
2021/11/26 03:35:20;;;;;;;50.15;30.77;;;1.70;99.90;;;;;;2676396;28;20255;-64
2021/11/26 03:36:38;;;;;;;47.20;32.40;;;1.70;99.90;;;;;;2679145;28;20286;-64
2021/11/26 03:37:57;;;;;;;55.27;32.40;;;1.60;99.90;;;;;;2677991;28;20492;-64
2021/11/26 03:39:16;;;;;;;45.45;30.33;;;1.60;99.90;;;;;;2670939;28;20452;-65
2021/11/26 03:40:34;;;;;;;52.92;31.30;;;1.60;99.90;;;;;;2675786;28;20233;-64
2021/11/26 03:41:53;;;;;;;49.33;32.05;;;1.60;99.90;;;;;;2673208;28;20210;-64
2021/11/26 03:43:12;;;;;;;46.40;30.50;;;1.60;99.90;;;;;;2683868;28;20213;-64
2021/11/26 03:44:30;;;;;;;46.55;31.08;;;1.60;99.90;;;;;;2679896;28;20200;-64
2021/11/26 03:45:49;;;;;;;48.30;31.65;;;1.60;99.90;;;;;;2678655;28;20789;-64
2021/11/26 03:47:07;;;;;;;49.35;32.47;;;1.60;99.90;;;;;;2685095;28;20209;-65
2021/11/26 03:48:26;;;;;;;49.80;31.60;;;1.60;99.90;;;;;;2676903;28;20206;-65
2021/11/26 03:49:43;;;;;;;48.38;32.00;;;1.60;99.90;;;;;;2676642;28;21007;-64
2021/11/26 03:51:02;;;;;;;45.83;31.60;;;1.60;99.90;;;;;;2675351;28;20297;-64
2021/11/26 03:52:20;;;;;;;51.60;33.17;;;1.70;99.90;;;;;;2677773;28;20509;-64
2021/11/26 03:53:39;;;;;;;46.20;30.60;;;1.60;99.90;;;;;;2671453;28;20280;-64
2021/11/26 03:54:56;;;;;;;49.38;32.83;;;1.70;99.90;;;;;;2687922;28;21024;-64
2021/11/26 03:56:15;;;;;;;50.93;30.67;;;1.70;99.90;;;;;;2682926;28;20212;-64
2021/11/26 03:57:34;;;;;;;48.40;30.05;;;1.80;99.90;;;;;;2684747;28;20471;-65
2021/11/26 03:58:52;;;;;;;46.50;30.50;;;1.80;99.90;;;;;;2676937;28;20214;-65
2021/11/26 04:00:11;;;;;;;51.50;32.38;;;1.80;99.90;;;;;;2671786;28;20540;-64
2021/11/26 04:01:29;;;;;;;49.97;32.38;;;1.80;99.90;;;;;;2683335;28;20213;-64
2021/11/26 04:02:49;;;;;;;49.05;31.40;;;1.80;99.90;;;;;;2676046;28;20260;-64
2021/11/26 04:04:08;;;;;;;50.75;31.65;;;1.70;99.90;;;;;;2677137;28;20256;-64
2021/11/26 04:05:26;;;;;;;50.08;31.55;;;1.70;99.90;;;;;;2678748;28;20219;-64
2021/11/26 04:06:44;;;;;;;49.90;31.85;;;1.70;99.90;;;;;;2675053;28;20206;-64
2021/11/26 04:08:03;;;;;;;56.60;35.45;;;1.80;99.90;;;;;;2670768;28;20619;-65
2021/11/26 04:09:22;;;;;;;48.83;33.45;;;1.70;99.90;;;;;;2688112;28;20617;-64
2021/11/26 04:10:41;;;;;;;55.00;34.35;;;1.70;99.90;;;;;;2679991;28;20201;-65
2021/11/26 04:12:00;;;;;;;53.30;33.22;;;1.80;99.90;;;;;;2679969;28;20304;-64
2021/11/26 04:13:19;;;;;;;49.13;31.63;;;1.90;99.90;;;;;;2676888;28;20647;-64
2021/11/26 04:14:38;;;;;;;48.92;32.28;;;1.90;99.90;;;;;;2680689;28;20235;-64
2021/11/26 04:16:02;;;;;;;47.78;33.55;;;1.90;99.90;;;;;;2680801;28;20290;-64
2021/11/26 04:17:24;;;;;;;48.70;30.77;;;1.90;99.90;;;;;;2677884;28;20667;-64
2021/11/26 04:18:43;;;;;;;53.47;31.65;;;2.00;99.90;;;;;;2673754;28;20206;-64
2021/11/26 04:20:01;;;;;;;47.38;31.30;;;1.90;99.90;;;;;;2679354;28;20209;-64
2021/11/26 04:21:19;;;;;;;50.17;32.90;;;1.90;99.90;;;;;;2678956;28;20871;-64
2021/11/26 04:22:39;;;;;;;46.88;33.55;;;1.90;99.90;;;;;;2679194;28;20210;-64
2021/11/26 04:23:56;;;;;;;52.53;32.67;;;1.90;99.90;;;;;;2680192;28;20296;-65
2021/11/26 04:25:18;;;;;;;49.70;32.40;;;1.90;99.90;;;;;;2679889;28;20667;-64
2021/11/26 04:26:37;;;;;;;49.22;33.65;;;1.90;99.90;;;;;;2670415;28;20466;-64
2021/11/26 04:27:56;;;;;;;47.17;31.17;;;1.90;99.90;;;;;;2680203;28;20207;-65
2021/11/26 04:29:15;;;;;;;50.72;33.58;;;1.90;99.90;;;;;;2680105;28;20201;-64
2021/11/26 04:30:34;;;;;;;48.90;31.33;;;1.90;99.90;;;;;;2672016;28;20206;-65
2021/11/26 04:31:52;;;;;;;53.33;34.85;;;1.80;99.90;;;;;;2679789;28;20189;-64
2021/11/26 04:33:10;;;;;;;52.60;33.00;;;1.90;99.90;;;;;;2679059;28;20612;-64
2021/11/26 04:34:29;;;;;;;47.75;31.85;;;1.90;99.90;;;;;;2681551;28;20689;-64
2021/11/26 04:35:49;;;;;;;51.35;34.15;;;1.90;99.90;;;;;;2680053;28;20825;-65
2021/11/26 04:37:08;;;;;;;49.28;32.05;;;1.90;99.90;;;;;;2681893;28;20210;-65
2021/11/26 04:38:27;;;;;;;51.75;34.65;;;1.80;99.90;;;;;;2671894;28;20214;-64
2021/11/26 04:39:44;;;;;;;50.67;33.63;;;1.80;99.90;;;;;;2675852;28;20199;-64
2021/11/26 04:41:03;;;;;;;49.13;33.13;;;1.80;99.90;;;;;;2676419;28;20244;-65
2021/11/26 04:42:22;;;;;;;47.92;34.15;;;1.80;99.90;;;;;;2681076;28;20222;-65
2021/11/26 04:43:41;;;;;;;54.33;33.75;;;1.80;99.90;;;;;;2680382;28;20201;-65
2021/11/26 04:44:58;;;;;;;47.08;32.10;;;1.80;99.90;;;;;;2679931;28;20784;-64
2021/11/26 04:46:17;;;;;;;54.00;33.10;;;1.80;99.90;;;;;;2686847;28;20209;-64
2021/11/26 04:47:36;;;;;;;55.42;34.15;;;1.80;99.90;;;;;;2686231;28;21167;-64
2021/11/26 04:48:55;;;;;;;47.97;33.53;;;1.80;99.90;;;;;;2680145;28;20205;-65
2021/11/26 04:50:16;;;;;;;50.95;33.17;;;1.90;99.90;;;;;;2679746;28;20216;-64
2021/11/26 04:51:35;;;;;;;53.88;32.72;;;1.90;99.90;;;;;;2678275;28;20304;-64
2021/11/26 04:52:54;;;;;;;48.25;31.42;;;1.90;99.90;;;;;;2682095;28;20201;-64
2021/11/26 04:54:12;;;;;;;46.72;32.05;;;1.90;99.90;;;;;;2672383;28;20203;-64
2021/11/26 04:55:31;;;;;;;49.65;31.85;;;1.90;99.90;;;;;;2681813;28;20612;-64
2021/11/26 04:56:50;;;;;;;48.67;32.80;;;1.90;99.90;;;;;;2680313;28;20218;-64
2021/11/26 04:58:09;;;;;;;49.15;32.42;;;1.90;99.90;;;;;;2676908;28;20749;-64
2021/11/26 04:59:28;;;;;;;48.15;32.13;;;1.90;99.90;;;;;;2674890;28;20259;-64
2021/11/26 05:00:45;;;;;;;49.05;31.77;;;1.80;99.90;;;;;;2683344;28;20259;-65
2021/11/26 05:02:04;;;;;;;48.67;32.73;;;1.80;99.90;;;;;;2679293;28;20213;-64
2021/11/26 05:03:23;;;;;;;51.17;33.38;;;1.80;99.90;;;;;;2679918;28;21600;-64
2021/11/26 05:04:42;;;;;;;51.85;32.90;;;1.90;99.90;;;;;;2679761;28;20644;-64
2021/11/26 05:06:01;;;;;;;54.30;34.72;;;1.90;99.90;;;;;;2678499;28;20808;-65
2021/11/26 05:07:20;;;;;;;50.40;33.60;;;1.90;99.90;;;;;;2679113;28;20243;-65
2021/11/26 05:08:39;;;;;;;49.60;33.33;;;1.90;99.90;;;;;;2678271;28;20400;-65
2021/11/26 05:10:00;;;;;;;51.15;35.17;;;1.90;99.90;;;;;;2674692;28;20209;-65
2021/11/26 05:11:19;;;;;;;51.45;35.00;;;1.90;99.90;;;;;;2683836;28;20221;-64
2021/11/26 05:12:38;;;;;;;50.80;32.70;;;1.90;99.90;;;;;;2683771;28;20205;-65
2021/11/26 05:13:57;;;;;;;48.00;32.92;;;1.90;99.90;;;;;;2684059;28;20206;-64
2021/11/26 05:15:24;;;;;;;50.13;33.00;;;1.90;99.90;;;;;;2684592;28;20205;-64
2021/11/26 05:16:43;;;;;;;49.05;32.65;;;1.90;99.90;;;;;;2670929;28;20201;-64
2021/11/26 05:18:04;;;;;;;50.17;31.42;;;2.00;99.90;;;;;;2680791;28;20204;-64
2021/11/26 05:19:23;;;;;;;48.25;30.88;;;2.00;99.90;;;;;;2673904;28;20560;-64
2021/11/26 05:20:42;;;;;;;45.05;30.23;;;2.00;99.90;;;;;;2673398;28;20207;-64
2021/11/26 05:22:01;;;;;;;48.03;31.77;;;2.10;99.90;;;;;;2679404;28;20571;-64
2021/11/26 05:23:20;;;;;;;45.88;31.30;;;2.20;99.90;;;;;;2686122;28;20209;-64
2021/11/26 05:24:39;;;;;;;54.22;32.97;;;2.20;99.90;;;;;;2679756;28;20644;-64
2021/11/26 05:25:57;;;;;;;49.08;31.98;;;2.20;99.90;;;;;;2683657;28;20655;-64
2021/11/26 05:27:16;;;;;;;46.25;31.27;;;2.10;99.90;;;;;;2680325;28;20659;-65
2021/11/26 05:28:35;;;;;;;47.40;31.65;;;2.10;99.90;;;;;;2684822;28;20210;-65
2021/11/26 05:29:53;;;;;;;49.58;32.67;;;2.10;99.90;;;;;;2678198;28;20203;-64
2021/11/26 05:31:12;;;;;;;43.60;30.48;;;2.10;99.90;;;;;;2679029;28;20217;-64
2021/11/26 05:32:30;;;;;;;47.47;31.90;;;2.20;99.90;;;;;;2680261;28;21057;-64
2021/11/26 05:33:49;;;;;;;49.07;30.90;;;2.20;99.90;;;;;;2675088;28;20202;-64
2021/11/26 05:35:14;;;;;;;47.25;31.70;;;2.10;99.90;;;;;;2679451;28;20643;-64
2021/11/26 05:36:33;;;;;;;51.08;32.40;;;2.20;99.90;;;;;;2677190;28;20201;-65
2021/11/26 05:37:52;;;;;;;53.70;34.75;;;2.20;99.90;;;;;;2685590;28;20202;-65
2021/11/26 05:39:11;;;;;;;49.63;33.95;;;2.10;99.90;;;;;;2676176;28;20727;-64
2021/11/26 05:40:30;;;;;;;48.15;31.45;;;2.20;99.90;;;;;;2678900;28;20210;-64
2021/11/26 05:41:48;;;;;;;47.03;31.08;;;2.30;99.90;;;;;;2675276;28;20649;-64
2021/11/26 05:43:07;;;;;;;48.97;33.92;;;2.30;99.90;;;;;;2679048;28;20576;-64
2021/11/26 05:44:26;;;;;;;49.95;31.70;;;2.30;99.90;;;;;;2680664;28;20202;-64
2021/11/26 05:45:45;;;;;;;49.00;31.75;;;2.20;99.90;;;;;;2673853;28;20210;-64
2021/11/26 05:47:03;;;;;;;52.80;33.90;;;2.10;99.90;;;;;;2680574;28;20279;-64
2021/11/26 05:48:21;;;;;;;46.20;31.47;;;2.00;99.90;;;;;;2678803;28;20307;-64
2021/11/26 05:49:40;;;;;;;52.47;32.25;;;2.00;99.90;;;;;;2675823;28;20498;-64
2021/11/26 05:50:59;;;;;;;49.30;32.42;;;2.00;99.90;;;;;;2675432;28;20210;-64
2021/11/26 05:52:17;;;;;;;47.00;33.65;;;1.90;99.90;;;;;;2679399;28;20201;-64
2021/11/26 05:53:36;;;;;;;46.05;31.88;;;1.90;99.90;;;;;;2682822;28;20217;-64
2021/11/26 05:54:54;;;;;;;54.38;33.33;;;1.90;99.90;;;;;;2679392;28;20707;-64
2021/11/26 05:56:13;;;;;;;48.53;32.70;;;1.90;99.90;;;;;;2678933;28;20213;-64
2021/11/26 05:57:30;;;;;;;49.17;31.52;;;1.80;99.90;;;;;;2674333;28;20207;-64
2021/11/26 05:58:49;;;;;;;46.77;31.13;;;1.80;99.90;;;;;;2679107;28;20271;-64
2021/11/26 06:00:11;;;;;;;53.47;34.55;;;1.90;99.90;;;;;;2684358;28;20478;-65
2021/11/26 06:01:29;;;;;;;57.28;32.42;;;1.90;99.90;;;;;;2676342;28;20795;-65
2021/11/26 06:02:48;;;;;;;51.50;34.10;;;1.90;99.90;;;;;;2680664;28;20210;-65
2021/11/26 06:04:06;;;;;;;48.78;34.45;;;1.90;99.90;;;;;;2678786;28;20217;-65
2021/11/26 06:05:25;;;;;;;48.55;31.67;;;1.90;99.90;;;;;;2684611;28;20826;-65
2021/11/26 06:06:44;;;;;;;50.88;33.63;;;2.00;99.90;;;;;;2675811;28;20956;-65
2021/11/26 06:08:03;;;;;;;45.78;32.13;;;1.90;99.90;;;;;;2684286;28;20234;-65
2021/11/26 06:09:22;;;;;;;49.33;32.35;;;2.00;99.90;;;;;;2679156;28;20234;-64
2021/11/26 06:10:40;;;;;;;48.55;31.67;;;1.90;99.90;;;;;;2682867;28;20213;-64
2021/11/26 06:11:59;;;;;;;54.63;34.40;;;2.00;99.90;;;;;;2687753;28;20216;-65
2021/11/26 06:13:18;;;;;;;55.70;34.13;;;2.00;99.90;;;;;;2679513;28;20259;-65
2021/11/26 06:14:36;;;;;;;55.58;32.83;;;2.00;99.90;;;;;;2678043;28;20206;-65
2021/11/26 06:15:55;;;;;;;49.78;33.60;;;2.00;99.90;;;;;;2676853;28;20204;-65
2021/11/26 06:17:14;;;;;;;53.78;34.33;;;2.00;99.90;;;;;;2679695;28;20211;-65
2021/11/26 06:18:33;;;;;;;49.78;31.60;;;2.10;99.90;;;;;;2680711;28;20206;-65
2021/11/26 06:19:50;;;;;;;53.20;34.15;;;2.10;99.90;;;;;;2678255;28;20696;-65
2021/11/26 06:21:09;;;;;;;51.88;34.00;;;2.10;99.90;;;;;;2678463;28;20216;-65
2021/11/26 06:22:27;;;;;;;52.65;33.83;;;2.10;99.90;;;;;;2676980;28;20255;-65
2021/11/26 06:23:47;;;;;;;56.08;32.75;;;2.10;99.90;;;;;;2677700;28;20238;-65
2021/11/26 06:25:05;;;;;;;52.05;31.85;;;2.10;99.90;;;;;;2674841;28;20236;-65
2021/11/26 06:26:24;;;;;;;52.55;33.25;;;2.10;99.90;;;;;;2679091;28;20201;-64
2021/11/26 06:27:44;;;;;;;50.97;31.98;;;2.10;99.90;;;;;;2683874;28;20258;-65
2021/11/26 06:29:02;;;;;;;49.35;32.53;;;2.10;99.90;;;;;;2682135;28;20228;-65
2021/11/26 06:30:23;;;;;;;54.50;32.58;;;2.10;99.90;;;;;;2678978;28;20213;-65
2021/11/26 06:31:42;;;;;;;50.97;32.30;;;2.00;99.90;;;;;;2682038;28;20987;-65
2021/11/26 06:33:00;;;;;;;53.70;32.88;;;2.00;99.90;;;;;;2681668;28;20603;-65
2021/11/26 06:34:18;;;;;;;58.60;35.05;;;2.00;99.90;;;;;;2679369;28;20272;-65
2021/11/26 06:35:37;;;;;;;51.23;33.80;;;2.00;99.90;;;;;;2679429;28;20746;-65
2021/11/26 06:36:55;;;;;;;53.33;36.88;;;2.00;99.90;;;;;;2681232;28;20508;-65
2021/11/26 06:38:13;;;;;;;55.40;36.22;;;1.90;99.90;;;;;;2679757;28;20256;-65
2021/11/26 06:39:31;;;;;;;52.63;33.53;;;1.90;99.90;;;;;;2684150;28;20720;-66
2021/11/26 06:40:50;;;;;;;53.30;33.35;;;2.00;99.90;;;;;;2676731;28;20530;-66
2021/11/26 06:42:09;;;;;;;51.58;31.67;;;2.00;99.90;;;;;;2678416;28;20250;-66
2021/11/26 06:43:28;;;;;;;55.22;34.45;;;2.00;99.90;;;;;;2676076;28;20210;-66
2021/11/26 06:44:45;;;;;;;59.72;37.47;;;2.10;99.90;;;;;;2677808;28;20580;-66